Time;durP1;ratioP1;P1;durP2;ratioP2;P2;SDS_P1;SDS_P2;PMS_P1;PMS_P2;Temp;Humidity;BMP_temperature;BMP_pressure;BME280_temperature;BME280_humidity;BME280_pressure;Samples;Min_cycle;Max_cycle;Signal;HPM_P1;HPM_P2
2022/03/14 00:01:01;;;;;;;13.97;8.40;;;;;;;19.06;46.61;100595.94;5051357;28;21524;-60
2022/03/14 00:03:28;;;;;;;17.43;9.23;;;;;;;19.06;46.90;100590.22;5037465;28;20196;-60
2022/03/14 00:05:54;;;;;;;12.27;8.53;;;;;;;19.02;46.85;100597.09;5031747;28;20199;-59
2022/03/14 00:08:21;;;;;;;13.70;9.10;;;;;;;19.04;46.91;100598.38;5034182;28;20415;-60
2022/03/14 00:10:49;;;;;;;12.43;8.63;;;;;;;19.02;46.92;100611.41;5031071;28;20566;-59
2022/03/14 00:13:19;;;;;;;13.73;8.60;;;;;;;19.00;47.00;100620.34;5031359;28;20450;-59
2022/03/14 00:15:44;;;;;;;16.80;9.70;;;;;;;19.01;46.97;100624.88;5049576;28;20468;-59
2022/03/14 00:18:10;;;;;;;18.87;9.17;;;;;;;18.99;47.06;100627.28;5051983;28;20454;-60
2022/03/14 00:20:36;;;;;;;11.33;8.03;;;;;;;19.00;47.20;100633.81;5051139;28;20271;-59
2022/03/14 00:23:02;;;;;;;12.77;8.20;;;;;;;19.01;46.90;100644.09;5050972;28;20416;-59
2022/03/14 00:25:30;;;;;;;13.00;8.10;;;;;;;18.99;47.16;100647.31;5051556;28;20199;-59
2022/03/14 00:27:55;;;;;;;11.33;7.80;;;;;;;18.98;47.26;100647.69;5051362;28;20198;-59
2022/03/14 00:30:21;;;;;;;14.20;8.30;;;;;;;19.00;47.18;100648.13;5051100;28;20895;-59
2022/03/14 00:32:47;;;;;;;11.80;7.80;;;;;;;18.98;47.36;100662.00;5050991;28;20210;-59
2022/03/14 00:35:13;;;;;;;13.50;8.00;;;;;;;19.00;47.08;100671.84;5051019;28;20422;-60
2022/03/14 00:37:38;;;;;;;12.10;7.40;;;;;;;18.99;47.10;100681.66;5051593;28;20190;-59
2022/03/14 00:40:07;;;;;;;12.63;7.83;;;;;;;18.98;47.31;100688.59;5050680;28;20176;-59
2022/03/14 00:42:32;;;;;;;11.57;7.37;;;;;;;18.98;47.19;100697.16;5050990;28;20176;-60
2022/03/14 00:44:58;;;;;;;12.80;7.47;;;;;;;18.98;47.36;100700.03;5050922;28;20944;-59
2022/03/14 00:47:23;;;;;;;15.70;8.40;;;;;;;18.99;47.51;100706.56;5051302;28;20180;-59
2022/03/14 00:49:48;;;;;;;13.53;8.00;;;;;;;18.96;47.34;100719.59;5050557;28;20176;-59
2022/03/14 00:52:16;;;;;;;11.07;7.53;;;;;;;18.98;47.17;100720.06;5050765;28;20212;-59
2022/03/14 00:54:42;;;;;;;10.73;7.00;;;;;;;18.99;47.18;100733.16;5051003;28;20175;-60
2022/03/14 00:57:07;;;;;;;11.93;6.60;;;;;;;18.96;47.56;100739.63;5051302;28;20473;-59
2022/03/14 00:59:34;;;;;;;12.20;7.43;;;;;;;18.97;47.79;100741.25;5050563;28;20195;-60
2022/03/14 01:01:59;;;;;;;11.73;7.87;;;;;;;18.96;47.61;100736.75;5050610;28;20557;-59
2022/03/14 01:04:25;;;;;;;10.70;7.07;;;;;;;18.98;47.46;100745.81;5050642;28;20450;-59
2022/03/14 01:06:51;;;;;;;11.60;7.60;;;;;;;18.95;47.74;100737.97;5050718;28;20210;-59
2022/03/14 01:09:16;;;;;;;13.30;7.60;;;;;;;18.97;47.49;100749.03;5049776;28;20956;-59
2022/03/14 01:11:42;;;;;;;11.17;7.03;;;;;;;18.97;47.39;100749.03;5049677;28;20225;-59
2022/03/14 01:14:07;;;;;;;11.60;7.83;;;;;;;18.97;47.75;100760.47;5048248;28;20231;-59
2022/03/14 01:16:34;;;;;;;11.73;7.50;;;;;;;18.97;47.39;100761.28;5050349;28;20722;-59
2022/03/14 01:19:00;;;;;;;11.40;7.50;;;;;;;18.99;47.46;100770.34;5049699;28;20175;-60
2022/03/14 01:21:29;;;;;;;9.67;7.27;;;;;;;18.97;47.32;100781.31;5050257;28;20414;-60
2022/03/14 01:23:54;;;;;;;10.83;7.17;;;;;;;18.96;47.47;100773.94;5050060;28;20462;-60
2022/03/14 01:26:20;;;;;;;10.00;6.80;;;;;;;18.98;47.57;100780.16;5050309;28;20496;-60
2022/03/14 01:28:45;;;;;;;11.00;7.40;;;;;;;18.98;47.32;100788.72;5049954;28;20175;-60
2022/03/14 01:31:11;;;;;;;10.67;7.17;;;;;;;18.97;47.62;100789.09;5050320;28;20172;-60
2022/03/14 01:33:36;;;;;;;15.23;7.47;;;;;;;18.97;47.65;100792.78;5048619;28;20697;-59
2022/03/14 01:36:02;;;;;;;10.00;7.07;;;;;;;18.97;47.48;100794.81;5047947;28;20184;-59
2022/03/14 01:38:27;;;;;;;10.50;6.90;;;;;;;18.97;47.57;100801.34;5050065;28;20248;-60
2022/03/14 01:40:53;;;;;;;9.03;6.43;;;;;;;18.99;47.66;100803.84;5049574;28;20180;-59
2022/03/14 01:43:20;;;;;;;9.10;6.20;;;;;;;18.98;47.52;100811.63;5049375;28;20168;-59
2022/03/14 01:45:46;;;;;;;9.57;6.20;;;;;;;19.00;47.43;100817.78;5050202;28;20457;-60
2022/03/14 01:48:12;;;;;;;8.77;6.40;;;;;;;18.97;47.59;100824.25;5049962;28;20902;-60
2022/03/14 01:50:37;;;;;;;10.00;6.27;;;;;;;19.01;47.46;100822.31;5043761;28;20790;-60
2022/03/14 01:53:03;;;;;;;9.13;6.10;;;;;;;19.00;47.38;100831.25;5029074;28;20466;-60
2022/03/14 01:55:28;;;;;;;9.33;6.10;;;;;;;19.01;47.50;100835.81;5030016;28;20187;-59
2022/03/14 01:57:54;;;;;;;11.30;5.90;;;;;;;18.97;47.66;100834.88;5029820;28;20191;-60
2022/03/14 02:00:20;;;;;;;9.63;6.10;;;;;;;18.97;47.69;100835.69;5029633;28;20181;-59
2022/03/14 02:02:47;;;;;;;11.33;6.87;;;;;;;18.99;47.38;100833.31;5043149;28;20424;-61
2022/03/14 02:05:14;;;;;;;10.80;6.10;;;;;;;19.01;47.43;100841.53;5036432;28;20204;-60
2022/03/14 02:07:40;;;;;;;8.27;5.47;;;;;;;18.99;47.40;100841.88;5029636;28;20534;-59
2022/03/14 02:10:06;;;;;;;9.37;6.20;;;;;;;18.99;47.47;100843.91;5031897;28;20978;-59
2022/03/14 02:12:31;;;;;;;8.53;6.17;;;;;;;18.98;47.65;100848.81;5029513;28;20208;-60
2022/03/14 02:14:57;;;;;;;8.83;6.10;;;;;;;18.99;47.45;100847.63;5040716;28;20426;-60
2022/03/14 02:17:22;;;;;;;10.53;6.40;;;;;;;18.98;47.61;100845.97;5049215;28;20689;-60
2022/03/14 02:19:48;;;;;;;11.83;5.80;;;;;;;18.97;47.48;100852.84;5049403;28;20179;-60
2022/03/14 02:22:14;;;;;;;10.40;6.57;;;;;;;18.97;47.37;100858.59;5049172;28;20631;-59
2022/03/14 02:24:40;;;;;;;9.40;6.00;;;;;;;18.98;47.58;100857.41;5049481;28;20179;-59
2022/03/14 02:27:06;;;;;;;9.57;6.33;;;;;;;18.97;47.52;100858.59;5049026;28;20172;-59
2022/03/14 02:29:31;;;;;;;9.77;6.07;;;;;;;19.00;47.31;100863.56;5031456;28;20450;-59
2022/03/14 02:31:57;;;;;;;9.47;6.20;;;;;;;19.00;47.49;100872.16;5049303;28;20211;-59
2022/03/14 02:34:22;;;;;;;10.57;5.93;;;;;;;19.00;47.70;100879.91;5049025;28;20534;-59
2022/03/14 02:36:48;;;;;;;7.93;5.70;;;;;;;18.97;47.81;100890.06;5048930;28;20638;-59
2022/03/14 02:39:13;;;;;;;9.47;6.03;;;;;;;18.96;47.80;100896.97;5049153;28;20258;-59
2022/03/14 02:41:39;;;;;;;11.13;6.27;;;;;;;18.97;47.89;100895.78;5049653;28;20229;-59
2022/03/14 02:44:08;;;;;;;7.50;5.70;;;;;;;18.97;47.67;100903.56;5049174;28;20191;-59
2022/03/14 02:46:37;;;;;;;9.63;5.60;;;;;;;18.97;47.76;100912.94;5048720;28;20205;-59
2022/03/14 02:49:06;;;;;;;7.27;5.47;;;;;;;18.99;47.38;100916.28;5049186;28;20406;-59
2022/03/14 02:51:34;;;;;;;10.00;6.10;;;;;;;18.99;47.50;100922.00;5049075;28;20414;-59
2022/03/14 02:54:05;;;;;;;7.70;5.40;;;;;;;18.95;47.68;100923.09;5049205;28;20414;-59
2022/03/14 02:56:32;;;;;;;8.40;5.20;;;;;;;18.97;47.79;100927.25;5049467;28;20905;-60
2022/03/14 02:58:57;;;;;;;7.50;5.67;;;;;;;18.98;47.68;100928.94;5048649;28;20419;-60
2022/03/14 03:01:23;;;;;;;9.13;5.43;;;;;;;18.97;48.06;100935.03;5047970;28;20417;-59
2022/03/14 03:03:49;;;;;;;12.17;6.03;;;;;;;18.96;47.82;100936.22;5048045;28;20587;-59
2022/03/14 03:06:15;;;;;;;8.20;5.53;;;;;;;18.97;47.66;100943.63;5052592;28;20183;-59
2022/03/14 03:08:44;;;;;;;8.80;5.40;;;;;;;18.97;47.68;100949.34;5052785;28;20430;-59
2022/03/14 03:11:12;;;;;;;8.60;5.97;;;;;;;18.97;47.69;100941.56;5053045;28;20421;-59
2022/03/14 03:13:41;;;;;;;7.87;5.53;;;;;;;18.95;47.58;100952.56;5052624;28;20785;-59
2022/03/14 03:16:07;;;;;;;9.90;6.00;;;;;;;18.94;47.74;100956.63;5053005;28;20471;-59
2022/03/14 03:18:33;;;;;;;8.53;5.73;;;;;;;18.94;47.87;100959.47;5052777;28;20898;-59
2022/03/14 03:20:59;;;;;;;7.57;5.27;;;;;;;18.95;47.99;100961.13;5052205;28;20913;-59
2022/03/14 03:23:24;;;;;;;6.67;4.80;;;;;;;18.91;47.72;100967.97;5050481;28;20422;-60
2022/03/14 03:25:49;;;;;;;9.30;5.97;;;;;;;18.96;48.01;100959.13;5052825;28;20183;-60
2022/03/14 03:28:15;;;;;;;9.13;5.37;;;;;;;18.94;47.70;100967.22;5049179;28;20176;-60
2022/03/14 03:30:40;;;;;;;8.33;5.60;;;;;;;18.94;47.61;100962.34;5052303;28;20182;-60
2022/03/14 03:33:06;;;;;;;6.93;5.20;;;;;;;18.95;47.62;100975.44;5051984;28;20693;-60
2022/03/14 03:35:31;;;;;;;7.47;5.00;;;;;;;18.94;47.61;100985.25;5052645;28;21141;-60
2022/03/14 03:37:57;;;;;;;7.07;4.87;;;;;;;18.95;48.20;100991.78;5052238;28;20183;-61
2022/03/14 03:40:22;;;;;;;7.10;5.00;;;;;;;18.93;48.01;100994.19;5033551;28;20267;-60
2022/03/14 03:42:47;;;;;;;8.00;5.30;;;;;;;18.90;47.75;100990.03;5051627;28;20210;-60
2022/03/14 03:45:13;;;;;;;8.40;5.80;;;;;;;18.88;47.89;100998.16;5050760;28;20217;-59
2022/03/14 03:47:40;;;;;;;6.93;4.97;;;;;;;18.93;48.06;100999.91;5052485;28;20176;-60
2022/03/14 03:50:06;;;;;;;7.53;4.60;;;;;;;18.92;47.95;101018.28;5051991;28;20172;-60
2022/03/14 03:52:32;;;;;;;8.73;5.50;;;;;;;18.94;47.72;101004.44;5051466;28;20481;-59
2022/03/14 03:54:57;;;;;;;7.07;5.00;;;;;;;18.90;47.85;101001.47;5052008;28;20992;-60
2022/03/14 03:57:22;;;;;;;10.00;5.67;;;;;;;18.89;47.87;100996.09;5046123;28;20184;-60
2022/03/14 03:59:48;;;;;;;6.07;5.00;;;;;;;18.91;48.05;101010.91;5031878;28;20180;-60
2022/03/14 04:02:19;;;;;;;7.07;5.17;;;;;;;18.91;47.98;101008.84;5034017;28;20172;-59
2022/03/14 04:04:46;;;;;;;8.00;4.90;;;;;;;18.91;47.87;101016.63;5044436;28;20200;-59
2022/03/14 04:07:13;;;;;;;6.80;4.87;;;;;;;18.91;47.74;101025.19;5031705;28;20423;-59
2022/03/14 04:09:39;;;;;;;8.47;5.57;;;;;;;18.92;47.87;101044.84;5031550;28;20482;-59
2022/03/14 04:12:05;;;;;;;5.40;4.50;;;;;;;18.93;47.69;101043.66;5031124;28;20490;-60
2022/03/14 04:14:30;;;;;;;6.87;4.87;;;;;;;18.91;47.88;101054.63;5039805;28;20234;-59
2022/03/14 04:16:57;;;;;;;7.97;4.80;;;;;;;18.91;47.86;101050.97;5050729;28;20183;-59
2022/03/14 04:19:22;;;;;;;8.43;5.67;;;;;;;18.92;47.92;101050.56;5051175;28;20187;-59
2022/03/14 04:21:48;;;;;;;7.20;4.80;;;;;;;18.92;47.95;101059.16;5050058;28;20422;-59
2022/03/14 04:24:14;;;;;;;6.10;4.33;;;;;;;18.91;47.84;101059.53;5051682;28;20241;-60
2022/03/14 04:26:39;;;;;;;7.93;5.13;;;;;;;18.94;47.82;101065.34;5051469;28;20905;-60
2022/03/14 04:29:05;;;;;;;7.70;5.53;;;;;;;18.93;47.84;101063.69;5051012;28;20400;-60
2022/03/14 04:31:31;;;;;;;6.83;4.70;;;;;;;18.97;47.63;101073.19;5051363;28;20175;-60
2022/03/14 04:33:57;;;;;;;7.60;5.43;;;;;;;18.94;47.60;101076.81;5051041;28;20298;-59
2022/03/14 04:36:23;;;;;;;6.87;4.70;;;;;;;18.93;47.75;101086.59;5051047;28;20865;-59
2022/03/14 04:38:48;;;;;;;6.50;4.73;;;;;;;18.94;47.78;101088.25;5051260;28;20218;-59
2022/03/14 04:41:14;;;;;;;7.13;5.07;;;;;;;18.96;48.40;101091.56;5050639;28;20255;-59
2022/03/14 04:43:39;;;;;;;6.60;4.70;;;;;;;18.95;47.59;101080.47;5051208;28;20168;-59
2022/03/14 04:46:05;;;;;;;6.73;4.83;;;;;;;18.91;47.91;101086.09;5050843;28;20649;-60
2022/03/14 04:48:30;;;;;;;7.80;4.50;;;;;;;18.92;47.82;101095.53;5051121;28;20183;-59
2022/03/14 04:50:56;;;;;;;7.93;4.67;;;;;;;18.92;47.67;101101.25;5050669;28;20164;-59
2022/03/14 04:53:22;;;;;;;6.70;4.60;;;;;;;18.94;47.63;101105.41;5050552;28;20203;-60
2022/03/14 04:55:47;;;;;;;6.63;4.27;;;;;;;18.92;47.94;101109.84;5050712;28;20418;-60
2022/03/14 04:58:14;;;;;;;5.93;4.50;;;;;;;18.92;47.60;101118.44;5050796;28;20172;-60
2022/03/14 05:00:40;;;;;;;7.53;4.30;;;;;;;18.93;48.05;101126.66;5050528;28;20172;-60
2022/03/14 05:03:08;;;;;;;9.77;4.20;;;;;;;18.92;47.74;101127.81;5050685;28;20416;-60
2022/03/14 05:05:34;;;;;;;5.73;4.37;;;;;;;18.91;47.85;101119.63;5050688;28;20203;-59
2022/03/14 05:08:00;;;;;;;6.37;4.20;;;;;;;18.91;47.96;101099.59;5050562;28;20723;-60
2022/03/14 05:10:25;;;;;;;7.37;4.30;;;;;;;18.93;47.64;101103.75;5049692;28;20228;-60
2022/03/14 05:12:50;;;;;;;5.50;4.03;;;;;;;18.93;47.83;101114.34;5050503;28;20204;-60
2022/03/14 05:15:16;;;;;;;6.23;4.43;;;;;;;18.93;47.79;101118.06;5050653;28;20184;-60
2022/03/14 05:17:42;;;;;;;6.20;4.03;;;;;;;18.92;47.81;101138.44;5050408;28;20172;-60
2022/03/14 05:20:09;;;;;;;7.10;4.40;;;;;;;18.94;47.83;101144.63;5049976;28;20175;-60
2022/03/14 05:22:43;;;;;;;6.23;4.00;;;;;;;18.93;47.80;101149.53;5049975;28;20179;-60
2022/03/14 05:25:09;;;;;;;6.03;3.90;;;;;;;18.94;47.52;101156.91;5050657;28;20783;-60
2022/03/14 05:27:35;;;;;;;5.80;3.87;;;;;;;18.91;47.82;101163.34;5050364;28;20422;-60
2022/03/14 05:30:00;;;;;;;6.50;4.13;;;;;;;18.91;47.90;101169.06;5046708;28;20429;-61
2022/03/14 05:32:26;;;;;;;7.23;4.63;;;;;;;18.93;47.64;101177.31;5050492;28;20203;-60
2022/03/14 05:34:51;;;;;;;6.83;4.13;;;;;;;18.90;48.13;101167.41;5050190;28;20654;-61
2022/03/14 05:37:18;;;;;;;6.87;4.87;;;;;;;18.92;47.73;101178.50;5049747;28;20171;-60
2022/03/14 05:39:43;;;;;;;5.50;4.00;;;;;;;18.92;47.74;101175.66;5048729;28;20554;-60
2022/03/14 05:42:09;;;;;;;6.33;4.17;;;;;;;18.91;47.84;101174.81;5050183;28;20409;-60
2022/03/14 05:44:34;;;;;;;5.80;4.17;;;;;;;18.92;48.01;101185.03;5049857;28;20301;-60
2022/03/14 05:46:59;;;;;;;5.10;4.03;;;;;;;18.93;48.03;101188.75;5049539;28;20180;-60
2022/03/14 05:49:25;;;;;;;5.53;4.30;;;;;;;18.92;47.86;101198.53;5047475;28;20179;-60
2022/03/14 05:51:52;;;;;;;7.63;4.53;;;;;;;18.93;47.93;101208.78;5048647;28;20190;-60
2022/03/14 05:54:17;;;;;;;5.60;4.40;;;;;;;18.93;48.28;101205.94;5048468;28;20179;-60
2022/03/14 05:56:46;;;;;;;6.03;4.50;;;;;;;18.95;47.94;101210.09;5047386;28;20437;-60
2022/03/14 05:59:12;;;;;;;5.80;4.43;;;;;;;18.93;48.34;101218.22;5049074;28;20187;-60
2022/03/14 06:01:38;;;;;;;5.57;4.37;;;;;;;18.91;47.98;101226.31;5050135;28;20418;-60
2022/03/14 06:04:04;;;;;;;8.70;4.57;;;;;;;18.91;47.92;101225.50;5045954;28;20555;-60
2022/03/14 06:06:29;;;;;;;6.37;4.20;;;;;;;18.92;47.96;101227.97;5048827;28;20184;-60
2022/03/14 06:08:55;;;;;;;6.60;4.23;;;;;;;18.90;48.02;101241.81;5048643;28;20184;-60
2022/03/14 06:11:20;;;;;;;6.63;4.40;;;;;;;18.92;47.95;101241.47;5046554;28;20546;-60
2022/03/14 06:13:46;;;;;;;6.00;4.37;;;;;;;18.94;47.54;101234.19;5049294;28;20203;-61
2022/03/14 06:16:13;;;;;;;6.20;4.00;;;;;;;18.93;47.60;101241.09;5049782;28;20175;-61
2022/03/14 06:18:38;;;;;;;5.60;3.93;;;;;;;18.99;47.74;101253.97;5049995;28;20195;-60
2022/03/14 06:21:04;;;;;;;7.77;4.50;;;;;;;18.95;47.68;101250.16;5049254;28;20442;-60
2022/03/14 06:23:29;;;;;;;6.40;4.33;;;;;;;18.99;47.59;101256.81;5049228;28;20942;-60
2022/03/14 06:25:55;;;;;;;5.53;4.07;;;;;;;18.94;47.99;101262.81;5049393;28;20183;-61
2022/03/14 06:28:21;;;;;;;5.73;4.00;;;;;;;18.93;47.81;101255.41;5049178;28;20830;-60
2022/03/14 06:30:47;;;;;;;6.60;4.30;;;;;;;18.92;47.99;101262.31;5049254;28;20754;-60
2022/03/14 06:33:12;;;;;;;4.07;3.50;;;;;;;18.92;47.87;101267.22;5049580;28;20493;-60
2022/03/14 06:35:40;;;;;;;6.00;3.90;;;;;;;18.95;47.80;101273.03;5049349;28;20171;-61
2022/03/14 06:38:06;;;;;;;6.63;3.77;;;;;;;18.92;47.93;101278.66;5048995;28;20186;-60
2022/03/14 06:40:31;;;;;;;4.90;3.63;;;;;;;18.95;48.02;101278.78;5051631;28;20506;-60
2022/03/14 06:42:57;;;;;;;5.07;3.70;;;;;;;18.95;47.92;101284.50;5053273;28;20905;-60
2022/03/14 06:45:23;;;;;;;5.90;4.10;;;;;;;18.97;47.48;101287.00;5053177;28;20187;-60
2022/03/14 06:47:51;;;;;;;10.53;4.53;;;;;;;18.93;47.87;101294.63;5053288;28;20202;-61
2022/03/14 06:50:17;;;;;;;5.80;3.57;;;;;;;18.95;47.82;101292.22;5052884;28;20175;-61
2022/03/14 06:52:43;;;;;;;5.30;3.73;;;;;;;18.97;47.72;101287.81;5053059;28;20464;-60
2022/03/14 06:55:10;;;;;;;5.87;4.00;;;;;;;18.97;47.70;101292.72;5053268;28;20259;-60
2022/03/14 06:57:37;;;;;;;4.87;3.33;;;;;;;18.94;48.13;101296.28;5053383;28;20183;-60
2022/03/14 07:00:04;;;;;;;6.43;4.13;;;;;;;18.95;47.92;101304.53;5052674;28;20428;-60
2022/03/14 07:02:29;;;;;;;5.20;3.43;;;;;;;18.94;47.82;101311.44;5035346;28;20430;-61
2022/03/14 07:04:55;;;;;;;6.40;3.90;;;;;;;18.91;47.92;101315.00;5052868;28;20843;-61
2022/03/14 07:07:20;;;;;;;5.40;4.00;;;;;;;18.95;47.83;101318.84;5053074;28;20172;-61
2022/03/14 07:09:45;;;;;;;5.07;3.37;;;;;;;18.92;47.96;101322.41;5052381;28;20304;-60
2022/03/14 07:12:11;;;;;;;6.03;3.57;;;;;;;18.95;47.65;101324.56;5051785;28;20205;-61
2022/03/14 07:14:37;;;;;;;7.30;4.10;;;;;;;18.95;47.74;101330.28;5034483;28;20219;-61
2022/03/14 07:17:02;;;;;;;8.57;3.60;;;;;;;18.95;47.92;101336.00;5052586;28;20215;-60
2022/03/14 07:19:28;;;;;;;5.30;3.77;;;;;;;18.94;47.91;101344.94;5052381;28;20176;-61
2022/03/14 07:21:53;;;;;;;5.70;3.63;;;;;;;18.96;47.62;101351.97;5049496;28;20175;-61
2022/03/14 07:24:19;;;;;;;6.60;3.77;;;;;;;18.92;47.76;101353.88;5052486;28;20176;-61
2022/03/14 07:26:44;;;;;;;5.40;4.10;;;;;;;18.93;47.92;101349.00;5052896;28;20172;-61
2022/03/14 07:29:10;;;;;;;5.63;3.70;;;;;;;18.92;47.80;101359.59;5052303;28;20178;-61
2022/03/14 07:31:37;;;;;;;6.10;3.47;;;;;;;18.95;48.41;101363.78;5052837;28;20191;-61
2022/03/14 07:34:02;;;;;;;5.70;3.70;;;;;;;18.97;48.13;101361.41;5052533;28;20219;-61
2022/03/14 07:36:28;;;;;;;6.53;3.50;;;;;;;18.93;47.85;101369.88;5052874;28;20420;-61
2022/03/14 07:38:56;;;;;;;5.10;3.60;;;;;;;18.96;48.08;101371.19;5052178;28;20657;-61
2022/03/14 07:41:21;;;;;;;5.10;3.40;;;;;;;18.94;47.89;101371.53;5052517;28;20598;-61
2022/03/14 07:43:47;;;;;;;6.90;3.57;;;;;;;18.93;47.92;101372.75;5051783;28;20445;-61
2022/03/14 07:46:12;;;;;;;4.90;3.63;;;;;;;18.93;47.76;101371.88;5052478;28;20179;-61
2022/03/14 07:48:38;;;;;;;5.00;3.60;;;;;;;18.91;47.96;101372.25;5051937;28;20244;-61
2022/03/14 07:51:03;;;;;;;5.77;3.60;;;;;;;18.95;47.83;101381.78;5050949;28;20180;-61
2022/03/14 07:53:32;;;;;;;5.07;3.67;;;;;;;18.95;47.93;101381.78;5051186;28;20200;-61
2022/03/14 07:55:57;;;;;;;5.80;3.07;;;;;;;18.97;47.72;101376.53;5051502;28;20212;-61
2022/03/14 07:58:23;;;;;;;5.00;3.10;;;;;;;18.94;47.83;101380.13;5036336;28;20423;-61
2022/03/14 08:00:48;;;;;;;5.00;3.10;;;;;;;18.95;47.58;101383.81;5031691;28;20164;-61
2022/03/14 08:03:15;;;;;;;5.27;3.30;;;;;;;18.97;47.87;101387.16;5032113;28;20541;-61
2022/03/14 08:05:42;;;;;;;4.57;3.17;;;;;;;18.92;48.04;101391.06;5034759;28;20185;-61
2022/03/14 08:08:08;;;;;;;5.40;3.47;;;;;;;18.96;48.09;101396.94;5045461;28;20814;-61
2022/03/14 08:10:36;;;;;;;4.53;3.40;;;;;;;18.98;47.67;101391.69;5031279;28;20466;-61
2022/03/14 08:13:01;;;;;;;4.90;3.10;;;;;;;18.98;47.82;101397.41;5045253;28;20532;-61
2022/03/14 08:15:31;;;;;;;5.00;3.20;;;;;;;18.97;47.75;101402.28;5051519;28;20437;-61
2022/03/14 08:17:58;;;;;;;5.13;3.20;;;;;;;18.96;48.06;101405.53;5051792;28;20252;-61
2022/03/14 08:20:27;;;;;;;6.10;3.50;;;;;;;18.96;47.99;101406.34;5051217;28;20473;-61
2022/03/14 08:22:53;;;;;;;4.53;3.00;;;;;;;18.97;47.71;101410.88;5051296;28;20398;-61
2022/03/14 08:25:19;;;;;;;4.10;3.03;;;;;;;19.01;47.73;101408.97;5033471;28;20433;-61
2022/03/14 08:27:46;;;;;;;4.13;3.00;;;;;;;18.99;47.67;101408.50;5033689;28;20502;-61
2022/03/14 08:30:12;;;;;;;5.00;3.37;;;;;;;19.01;47.82;101405.28;5051330;28;20442;-61
2022/03/14 08:32:39;;;;;;;4.70;2.90;;;;;;;19.00;47.64;101400.72;5051782;28;20458;-61
2022/03/14 08:35:08;;;;;;;4.90;3.23;;;;;;;18.98;47.79;101401.13;5051054;28;20183;-61
2022/03/14 08:37:37;;;;;;;5.50;3.50;;;;;;;18.99;47.42;101397.06;5051222;28;20483;-61
2022/03/14 08:40:09;;;;;;;4.00;2.93;;;;;;;18.98;48.09;101401.13;5032726;28;20494;-61
2022/03/14 08:42:38;;;;;;;5.00;3.03;;;;;;;18.97;48.01;101399.41;5051318;28;20406;-60
2022/03/14 08:45:04;;;;;;;4.60;3.30;;;;;;;18.98;47.95;101392.53;5050877;28;20492;-60
2022/03/14 08:47:30;;;;;;;4.33;2.73;;;;;;;18.93;47.82;101400.50;5051392;28;20418;-60
2022/03/14 08:49:56;;;;;;;6.10;3.40;;;;;;;18.93;48.11;101404.22;5050548;28;20436;-60
2022/03/14 08:52:21;;;;;;;4.83;3.23;;;;;;;18.95;47.85;101398.09;5049330;28;20222;-60
2022/03/14 08:54:47;;;;;;;5.87;3.70;;;;;;;18.92;47.94;101405.38;5050772;28;20198;-60
2022/03/14 08:57:12;;;;;;;4.33;2.80;;;;;;;18.93;47.86;101409.94;5050785;28;20230;-60
2022/03/14 08:59:38;;;;;;;4.60;3.30;;;;;;;18.92;47.84;101410.28;5050647;28;20180;-60
2022/03/14 09:02:03;;;;;;;5.40;3.50;;;;;;;18.93;47.90;101418.53;5050880;28;20179;-60
2022/03/14 09:04:29;;;;;;;4.47;3.43;;;;;;;18.94;48.14;101414.47;5049506;28;20200;-60
2022/03/14 09:06:55;;;;;;;4.40;3.10;;;;;;;18.94;48.09;101425.91;5048173;28;20183;-60
2022/03/14 09:09:20;;;;;;;3.90;2.97;;;;;;;18.92;47.91;101430.31;5055498;28;20271;-60
2022/03/14 09:11:46;;;;;;;5.80;2.77;;;;;;;18.90;48.26;101424.09;5030835;28;20906;-60
2022/03/14 09:14:11;;;;;;;7.80;2.90;;;;;;;18.91;48.14;101428.66;5038231;28;20572;-60
2022/03/14 09:16:37;;;;;;;4.00;2.93;;;;;;;18.91;47.95;101426.59;5049460;28;20175;-60
2022/03/14 09:19:02;;;;;;;4.77;3.23;;;;;;;18.93;47.97;101423.41;5049665;28;20263;-60
2022/03/14 09:21:29;;;;;;;4.63;2.73;;;;;;;18.90;48.05;101436.41;5050403;28;20183;-61
2022/03/14 09:23:56;;;;;;;3.70;2.70;;;;;;;18.93;48.32;101437.72;5049504;28;20175;-61
2022/03/14 09:26:21;;;;;;;3.97;3.00;;;;;;;18.90;47.93;101439.25;5050201;28;20430;-61
2022/03/14 09:28:48;;;;;;;7.00;3.37;;;;;;;18.90;48.01;101444.97;5049244;28;20475;-61
2022/03/14 09:31:16;;;;;;;4.20;3.23;;;;;;;18.90;47.81;101450.69;5049481;28;20188;-61
2022/03/14 09:33:42;;;;;;;9.27;3.33;;;;;;;18.93;48.08;101449.16;5050014;28;20457;-61
2022/03/14 09:36:07;;;;;;;4.00;2.50;;;;;;;18.90;48.00;101450.69;5050413;28;20785;-60
2022/03/14 09:38:33;;;;;;;5.20;3.20;;;;;;;18.90;48.30;101452.72;5049994;28;20240;-60
2022/03/14 09:41:03;;;;;;;4.83;2.63;;;;;;;18.93;48.13;101452.00;5048605;28;20183;-60
2022/03/14 09:43:32;;;;;;;4.67;2.83;;;;;;;18.91;48.06;101455.22;5049983;28;20168;-60
2022/03/14 09:45:59;;;;;;;3.83;2.83;;;;;;;18.92;47.97;101454.03;5048578;28;20431;-60
2022/03/14 09:48:24;;;;;;;4.50;3.20;;;;;;;18.92;48.24;101454.03;5049206;28;20768;-61
2022/03/14 09:50:50;;;;;;;3.90;2.90;;;;;;;18.93;48.09;101455.72;5030321;28;20433;-61
2022/03/14 09:53:17;;;;;;;5.60;3.00;;;;;;;18.92;48.20;101456.06;5032097;28;20249;-61
2022/03/14 09:55:45;;;;;;;7.27;2.70;;;;;;;18.94;48.01;101465.97;5049741;28;20485;-61
2022/03/14 09:58:12;;;;;;;3.97;2.70;;;;;;;18.93;48.12;101466.31;5049773;28;20497;-61
2022/03/14 10:00:37;;;;;;;5.53;3.40;;;;;;;18.93;48.22;101464.31;5046073;28;20493;-61
2022/03/14 10:03:03;;;;;;;4.97;3.00;;;;;;;18.96;47.93;101462.75;5049530;28;20428;-61
2022/03/14 10:05:29;;;;;;;4.10;2.57;;;;;;;18.96;47.84;101468.47;5042402;28;20176;-61
2022/03/14 10:07:54;;;;;;;5.87;2.93;;;;;;;18.98;47.92;101474.69;5029270;28;20419;-61
2022/03/14 10:10:20;;;;;;;4.77;2.63;;;;;;;18.97;47.77;101473.00;5028123;28;20239;-61
2022/03/14 10:12:49;;;;;;;3.83;2.70;;;;;;;18.99;48.24;101473.47;5032126;28;20196;-61
2022/03/14 10:15:15;;;;;;;4.10;2.90;;;;;;;18.96;48.01;101482.78;5042110;28;20225;-61
2022/03/14 10:17:40;;;;;;;4.87;3.00;;;;;;;18.95;47.98;101479.09;5049169;28;20795;-61
2022/03/14 10:20:06;;;;;;;3.70;2.53;;;;;;;18.95;48.39;101486.81;5049328;28;20273;-62
2022/03/14 10:22:39;;;;;;;4.00;2.90;;;;;;;18.97;47.93;101484.47;5031766;28;20268;-62
2022/03/14 10:25:11;;;;;;;4.00;2.40;;;;;;;18.99;48.06;101484.94;5049767;28;20211;-61
2022/03/14 10:27:41;;;;;;;5.03;2.50;;;;;;;18.98;48.19;101484.09;5049060;28;20480;-61
2022/03/14 10:30:20;;;;;;;4.97;2.77;;;;;;;18.97;47.96;101488.13;5049231;28;20423;-61
2022/03/14 10:32:47;;;;;;;4.77;2.80;;;;;;;18.98;47.94;101486.97;5031481;28;20473;-61
2022/03/14 10:35:16;;;;;;;4.00;2.43;;;;;;;18.96;48.08;101492.19;5047945;28;20422;-62
2022/03/14 10:37:42;;;;;;;3.73;2.63;;;;;;;18.99;47.98;101490.66;5049273;28;20449;-62
2022/03/14 10:40:08;;;;;;;4.60;2.27;;;;;;;18.98;47.86;101478.38;5031422;28;20425;-62
2022/03/14 10:42:41;;;;;;;4.10;2.70;;;;;;;19.00;48.18;101480.88;5049429;28;20627;-61
2022/03/14 10:45:15;;;;;;;3.90;2.33;;;;;;;19.01;48.00;101482.56;5048983;28;20430;-61
2022/03/14 10:47:51;;;;;;;4.10;2.50;;;;;;;18.99;47.95;101480.06;5031614;28;20446;-61
2022/03/14 10:50:28;;;;;;;4.50;2.73;;;;;;;19.04;47.70;101479.81;5031790;28;20935;-61
2022/03/14 10:53:18;;;;;;;4.10;2.47;;;;;;;19.01;47.94;101471.94;5048135;28;20549;-61
2022/03/14 10:55:45;;;;;;;4.77;2.47;;;;;;;19.01;48.29;101474.78;5048184;28;20418;-62
2022/03/14 10:58:18;;;;;;;4.03;2.53;;;;;;;19.00;47.96;101478.00;5049285;28;20926;-62
2022/03/14 11:00:54;;;;;;;4.50;2.50;;;;;;;19.03;47.90;101483.03;5031505;28;20881;-62
2022/03/14 11:03:33;;;;;;;2.73;1.93;;;;;;;19.03;47.96;101478.16;5048552;28;20460;-62
2022/03/14 11:06:03;;;;;;;4.40;2.57;;;;;;;19.01;48.05;101474.78;5049254;28;20516;-61
2022/03/14 11:08:47;;;;;;;4.47;2.77;;;;;;;19.02;47.99;101467.88;5030359;28;20428;-61
2022/03/14 11:11:17;;;;;;;6.90;2.70;;;;;;;19.02;47.80;101475.66;5048376;28;20425;-61
2022/03/14 11:13:52;;;;;;;3.67;2.40;;;;;;;19.01;47.75;101477.66;5046370;28;20457;-61
2022/03/14 11:16:22;;;;;;;3.63;2.10;;;;;;;19.03;48.06;101478.16;5047495;28;20892;-61
2022/03/14 11:18:48;;;;;;;3.17;2.20;;;;;;;19.03;48.20;101475.28;5048798;28;20422;-62
2022/03/14 11:21:14;;;;;;;3.83;2.60;;;;;;;19.04;48.04;101470.38;5048730;28;20886;-62